Time;durP1;ratioP1;P1;durP2;ratioP2;P2;SDS_P1;SDS_P2;PMS_P1;PMS_P2;Temp;Humidity;BMP_temperature;BMP_pressure;BME280_temperature;BME280_humidity;BME280_pressure;Samples;Min_cycle;Max_cycle;Signal;HPM_P1;HPM_P2
2023/06/26 00:00:30;;;;;;;15.45;12.15;;;25.20;99.90;;;;;;5017911;28;20097;-67
2023/06/26 00:02:55;;;;;;;14.18;11.70;;;25.20;99.90;;;;;;5021819;28;20074;-67
2023/06/26 00:05:21;;;;;;;13.20;11.82;;;25.20;99.90;;;;;;5020049;28;20113;-67
2023/06/26 00:07:47;;;;;;;12.20;11.05;;;25.10;99.90;;;;;;5019977;28;20116;-67
2023/06/26 00:10:13;;;;;;;12.05;10.85;;;25.10;99.90;;;;;;5013614;28;20030;-67
2023/06/26 00:12:38;;;;;;;11.43;10.23;;;25.00;99.90;;;;;;5018562;28;20025;-67
2023/06/26 00:15:05;;;;;;;11.68;10.48;;;25.00;99.90;;;;;;5014789;28;20037;-67
2023/06/26 00:17:36;;;;;;;10.82;9.77;;;25.00;99.90;;;;;;5016254;28;20026;-67
2023/06/26 00:20:02;;;;;;;11.57;10.15;;;25.00;99.90;;;;;;5029181;28;20072;-67
2023/06/26 00:22:28;;;;;;;11.35;10.25;;;24.90;99.90;;;;;;5014123;28;20489;-67
2023/06/26 00:24:54;;;;;;;12.45;9.20;;;24.90;99.90;;;;;;5019602;28;20075;-67
2023/06/26 00:27:20;;;;;;;10.73;9.68;;;24.80;99.90;;;;;;5015819;28;20033;-67
2023/06/26 00:29:46;;;;;;;10.43;9.13;;;24.80;99.90;;;;;;5016964;28;20109;-67
2023/06/26 00:32:11;;;;;;;13.32;10.07;;;24.80;99.90;;;;;;5020164;28;20022;-67
2023/06/26 00:34:37;;;;;;;10.48;9.57;;;24.80;99.90;;;;;;5016028;28;20029;-67
2023/06/26 00:37:03;;;;;;;9.98;8.02;;;24.80;99.90;;;;;;5014741;28;20529;-67
2023/06/26 00:39:29;;;;;;;9.30;8.35;;;24.80;99.90;;;;;;5015602;28;20093;-67
2023/06/26 00:41:55;;;;;;;8.82;7.93;;;24.80;99.90;;;;;;5019984;28;20174;-67
2023/06/26 00:44:20;;;;;;;9.35;8.35;;;24.80;99.90;;;;;;5018513;28;20078;-67
2023/06/26 00:46:47;;;;;;;10.38;8.10;;;24.80;99.90;;;;;;5024553;28;20026;-67
2023/06/26 00:49:13;;;;;;;8.65;7.85;;;24.80;99.90;;;;;;5015392;28;20036;-67
2023/06/26 00:51:40;;;;;;;8.40;7.40;;;24.80;99.90;;;;;;5021554;28;20090;-67
2023/06/26 00:54:06;;;;;;;9.27;8.07;;;24.70;99.90;;;;;;5013957;28;20018;-67
2023/06/26 00:56:32;;;;;;;9.35;8.50;;;24.70;99.90;;;;;;5016051;28;20025;-67
2023/06/26 00:58:58;;;;;;;8.63;7.90;;;24.70;99.90;;;;;;5016139;28;20373;-67
2023/06/26 01:01:25;;;;;;;8.32;7.65;;;24.70;99.90;;;;;;5018334;28;20025;-67
2023/06/26 01:03:52;;;;;;;8.80;8.00;;;24.70;99.90;;;;;;5022248;28;20108;-67
2023/06/26 01:06:21;;;;;;;9.07;8.18;;;24.70;99.90;;;;;;5017040;28;20025;-67
2023/06/26 01:08:47;;;;;;;9.77;7.93;;;24.70;99.90;;;;;;5018234;28;20057;-67
2023/06/26 01:11:14;;;;;;;9.93;8.90;;;24.70;99.90;;;;;;5018774;28;20064;-67
2023/06/26 01:13:41;;;;;;;8.95;7.68;;;24.70;99.90;;;;;;5017125;28;20104;-67
2023/06/26 01:16:08;;;;;;;10.25;8.35;;;24.70;99.90;;;;;;5018641;28;20057;-67
2023/06/26 01:18:37;;;;;;;9.27;8.38;;;24.70;99.90;;;;;;5018510;28;20050;-67
2023/06/26 01:21:04;;;;;;;9.18;8.38;;;24.70;99.90;;;;;;5018920;28;20109;-67
2023/06/26 01:23:39;;;;;;;8.73;7.82;;;24.60;99.90;;;;;;5022302;28;20040;-67
2023/06/26 01:26:07;;;;;;;12.52;8.48;;;24.60;99.90;;;;;;5013680;28;20462;-67
2023/06/26 01:28:41;;;;;;;9.60;7.38;;;24.60;99.90;;;;;;5021474;28;20525;-67
2023/06/26 01:31:08;;;;;;;7.88;7.07;;;24.50;99.90;;;;;;5011234;28;20022;-67
2023/06/26 01:33:34;;;;;;;8.63;7.13;;;24.50;99.90;;;;;;5017711;28;20029;-67
2023/06/26 01:36:01;;;;;;;8.73;7.82;;;24.50;99.90;;;;;;5018569;28;20033;-67
2023/06/26 01:38:26;;;;;;;8.57;7.22;;;24.50;99.90;;;;;;5018831;28;20499;-67
2023/06/26 01:40:53;;;;;;;8.93;6.95;;;24.50;99.90;;;;;;5017866;28;20089;-67
2023/06/26 01:43:37;;;;;;;8.77;7.97;;;24.50;99.90;;;;;;5019577;28;20043;-67
2023/06/26 01:46:15;;;;;;;8.20;7.25;;;24.60;99.90;;;;;;5021178;28;20030;-67
2023/06/26 01:48:48;;;;;;;8.70;7.18;;;24.60;99.90;;;;;;5019755;28;20068;-67
2023/06/26 01:51:17;;;;;;;12.23;7.63;;;24.50;99.90;;;;;;5020998;28;20037;-67
2023/06/26 01:53:50;;;;;;;8.90;7.28;;;24.60;99.90;;;;;;5023568;28;20572;-67
2023/06/26 01:56:18;;;;;;;;;;;24.60;99.90;;;;;;5021139;28;20359;-67
2023/06/26 01:58:50;;;;;;;8.15;7.35;;;24.50;99.90;;;;;;5018700;28;19909;-67
2023/06/26 02:01:16;;;;;;;9.35;6.10;;;24.50;99.90;;;;;;5020196;28;20026;-67
2023/06/26 02:03:42;;;;;;;8.48;5.70;;;24.50;99.90;;;;;;5019736;28;20026;-67
2023/06/26 02:06:07;;;;;;;7.32;6.53;;;24.40;99.90;;;;;;5017974;28;20079;-67
2023/06/26 02:08:33;;;;;;;6.88;5.45;;;24.30;99.90;;;;;;5021316;28;20026;-67
2023/06/26 02:10:58;;;;;;;5.72;5.10;;;24.10;99.90;;;;;;5025461;28;20033;-66
2023/06/26 02:13:24;;;;;;;11.05;5.70;;;24.10;99.90;;;;;;5022955;28;20033;-67
2023/06/26 02:15:50;;;;;;;8.07;5.20;;;24.00;99.90;;;;;;5023517;28;20026;-67
2023/06/26 02:18:15;;;;;;;9.40;5.88;;;24.10;99.90;;;;;;5017236;28;20022;-67
2023/06/26 02:20:41;;;;;;;6.28;5.18;;;24.00;99.90;;;;;;5019450;28;20501;-67
2023/06/26 02:23:07;;;;;;;11.52;5.60;;;23.90;99.90;;;;;;5023490;28;20102;-67
2023/06/26 02:25:33;;;;;;;6.90;6.13;;;23.90;99.90;;;;;;5016272;28;20026;-67
2023/06/26 02:27:58;;;;;;;9.80;5.63;;;24.00;99.90;;;;;;5022459;28;20022;-67
2023/06/26 02:30:24;;;;;;;5.43;4.88;;;23.90;99.90;;;;;;5019772;28;20033;-67
2023/06/26 02:32:50;;;;;;;7.18;5.43;;;23.90;99.90;;;;;;5025456;28;20022;-67
2023/06/26 02:35:15;;;;;;;5.15;4.65;;;23.90;99.90;;;;;;5023905;28;20025;-67
2023/06/26 02:37:41;;;;;;;8.57;5.22;;;23.90;99.90;;;;;;5020737;28;20086;-67
2023/06/26 02:40:08;;;;;;;6.57;5.15;;;23.90;99.90;;;;;;5019379;28;20029;-67
2023/06/26 02:42:35;;;;;;;5.97;4.82;;;23.90;99.90;;;;;;5021477;28;20036;-67
2023/06/26 02:45:00;;;;;;;8.18;5.53;;;23.80;99.90;;;;;;5013431;28;20109;-67
2023/06/26 02:47:26;;;;;;;8.38;5.40;;;23.80;99.90;;;;;;5019071;28;20097;-67
2023/06/26 02:49:52;;;;;;;9.63;5.28;;;23.80;99.90;;;;;;5022622;28;20033;-67
2023/06/26 02:52:18;;;;;;;6.78;4.72;;;23.80;99.90;;;;;;5023985;28;20025;-67
2023/06/26 02:54:44;;;;;;;6.78;4.72;;;23.70;99.90;;;;;;5015902;28;20105;-67
2023/06/26 02:57:10;;;;;;;7.15;5.22;;;23.70;99.90;;;;;;5025519;28;20100;-67
2023/06/26 02:59:35;;;;;;;6.95;5.35;;;23.70;99.90;;;;;;5017118;28;20106;-67
2023/06/26 03:02:01;;;;;;;7.43;5.30;;;23.70;99.90;;;;;;5020003;28;20022;-67
2023/06/26 03:04:26;;;;;;;7.47;5.78;;;23.70;99.90;;;;;;5019642;28;20082;-67
2023/06/26 03:06:52;;;;;;;7.60;5.68;;;23.70;99.90;;;;;;5018405;28;20037;-67
2023/06/26 03:09:18;;;;;;;7.18;5.22;;;23.80;99.90;;;;;;5020771;28;20482;-67
2023/06/26 03:11:43;;;;;;;7.28;5.50;;;23.80;99.90;;;;;;5015522;28;20038;-67
2023/06/26 03:14:09;;;;;;;10.10;5.72;;;23.80;99.90;;;;;;5020266;28;20028;-67
2023/06/26 03:16:35;;;;;;;9.07;5.40;;;23.70;99.90;;;;;;5015399;28;20117;-67
2023/06/26 03:19:01;;;;;;;7.40;5.13;;;23.80;99.90;;;;;;5021141;28;20467;-67
2023/06/26 03:21:26;;;;;;;6.00;4.90;;;23.80;99.90;;;;;;5015776;28;20117;-67
2023/06/26 03:23:52;;;;;;;9.95;5.45;;;23.70;99.90;;;;;;5017950;28;20082;-67
2023/06/26 03:26:17;;;;;;;8.20;4.93;;;23.70;99.90;;;;;;5017491;28;20480;-67
2023/06/26 03:28:43;;;;;;;10.48;5.18;;;23.70;99.90;;;;;;5021387;28;20078;-67
2023/06/26 03:31:09;;;;;;;7.03;6.00;;;23.70;99.90;;;;;;5020947;28;20032;-67
2023/06/26 03:33:34;;;;;;;11.00;5.75;;;23.80;99.90;;;;;;5018189;28;20068;-67
2023/06/26 03:36:00;;;;;;;9.35;5.85;;;23.60;99.90;;;;;;5024151;28;20405;-67
2023/06/26 03:38:26;;;;;;;8.98;5.45;;;23.70;99.90;;;;;;5022289;28;20423;-67
2023/06/26 03:40:51;;;;;;;8.50;5.85;;;23.60;99.90;;;;;;5016750;28;20037;-67
2023/06/26 03:43:17;;;;;;;8.80;5.07;;;23.60;99.90;;;;;;5021352;28;20089;-67
2023/06/26 03:45:43;;;;;;;9.43;5.82;;;23.40;99.90;;;;;;5017437;28;20033;-67
2023/06/26 03:48:09;;;;;;;10.23;5.70;;;23.50;99.90;;;;;;5017872;28;20393;-67
2023/06/26 03:50:34;;;;;;;8.57;4.97;;;23.50;99.90;;;;;;5021975;28;20104;-67
2023/06/26 03:53:00;;;;;;;11.45;5.70;;;23.40;99.90;;;;;;5019725;28;20473;-67
2023/06/26 03:55:26;;;;;;;10.00;5.80;;;23.30;99.90;;;;;;5017624;28;20041;-66
2023/06/26 03:57:51;;;;;;;9.43;5.03;;;23.40;99.90;;;;;;5018742;28;20029;-67
2023/06/26 04:00:17;;;;;;;10.45;5.45;;;23.40;99.90;;;;;;5020011;28;20026;-67
2023/06/26 04:02:43;;;;;;;9.48;5.43;;;23.40;99.90;;;;;;5016648;28;20112;-67
2023/06/26 04:05:08;;;;;;;9.82;5.88;;;23.40;99.90;;;;;;5021761;28;20022;-67
2023/06/26 04:07:35;;;;;;;7.63;5.10;;;23.40;99.90;;;;;;5017610;28;20461;-67
2023/06/26 04:10:01;;;;;;;8.95;5.43;;;23.40;99.90;;;;;;5020662;28;20026;-67
2023/06/26 04:12:27;;;;;;;10.65;5.43;;;23.50;99.90;;;;;;5018944;28;20626;-66
2023/06/26 04:14:53;;;;;;;7.85;5.18;;;23.40;99.90;;;;;;5019869;28;20091;-66
2023/06/26 04:17:19;;;;;;;7.68;5.55;;;23.40;99.90;;;;;;5016608;28;20157;-66
2023/06/26 04:19:45;;;;;;;10.00;6.00;;;23.40;99.90;;;;;;5018516;28;20026;-66
2023/06/26 04:22:10;;;;;;;9.30;5.63;;;23.30;99.90;;;;;;5020907;28;20034;-66
2023/06/26 04:24:36;;;;;;;8.13;6.15;;;23.30;99.90;;;;;;5021685;28;20025;-66
2023/06/26 04:27:03;;;;;;;9.73;5.80;;;23.30;99.90;;;;;;5019902;28;20530;-66
2023/06/26 04:29:28;;;;;;;10.43;5.47;;;23.20;99.90;;;;;;5017185;28;20477;-66
2023/06/26 04:32:00;;;;;;;10.45;6.70;;;23.10;99.90;;;;;;5017778;28;20041;-66
2023/06/26 04:34:27;;;;;;;8.50;5.75;;;23.20;99.90;;;;;;5020363;28;20039;-66
2023/06/26 04:36:53;;;;;;;13.68;6.55;;;23.20;99.90;;;;;;5019624;28;20456;-66
2023/06/26 04:39:19;;;;;;;9.15;5.20;;;23.20;99.90;;;;;;5016590;28;20537;-66
2023/06/26 04:41:45;;;;;;;11.27;6.28;;;23.20;99.90;;;;;;5021235;28;20108;-66
2023/06/26 04:44:11;;;;;;;9.95;5.82;;;23.10;99.90;;;;;;5021608;28;20034;-66
2023/06/26 04:46:41;;;;;;;12.73;5.95;;;23.00;99.90;;;;;;5017339;28;20028;-66
2023/06/26 04:49:07;;;;;;;14.95;6.07;;;23.10;99.90;;;;;;5015906;28;20388;-66
2023/06/26 04:51:33;;;;;;;12.18;6.20;;;23.20;99.90;;;;;;5020716;28;20393;-66
2023/06/26 04:53:58;;;;;;;9.27;6.28;;;23.10;99.90;;;;;;5014151;28;20492;-66
2023/06/26 04:56:24;;;;;;;11.88;6.22;;;23.20;99.90;;;;;;5014226;28;20026;-66
2023/06/26 04:58:50;;;;;;;13.73;6.53;;;23.10;99.90;;;;;;5015649;28;20030;-66
2023/06/26 05:01:15;;;;;;;10.70;6.03;;;23.10;99.90;;;;;;5016945;28;20416;-66
2023/06/26 05:03:41;;;;;;;13.65;6.90;;;23.10;99.90;;;;;;5020591;28;20030;-66
2023/06/26 05:06:07;;;;;;;10.07;6.00;;;23.10;99.90;;;;;;5024149;28;20086;-66
2023/06/26 05:08:32;;;;;;;12.75;5.68;;;22.90;99.90;;;;;;5021346;28;20052;-66
2023/06/26 05:10:58;;;;;;;13.15;5.45;;;23.00;99.90;;;;;;5019830;28;20022;-67
2023/06/26 05:13:27;;;;;;;13.50;6.57;;;22.90;99.90;;;;;;5014494;28;20432;-66
2023/06/26 05:15:53;;;;;;;13.63;5.78;;;22.80;99.90;;;;;;5018781;28;20109;-66
2023/06/26 05:18:19;;;;;;;12.52;5.88;;;22.90;99.90;;;;;;5020950;28;20026;-67
2023/06/26 05:20:45;;;;;;;8.98;5.88;;;23.00;99.90;;;;;;5035441;28;20029;-66
2023/06/26 05:23:12;;;;;;;12.40;6.03;;;23.00;99.90;;;;;;5021146;28;20028;-66
2023/06/26 05:25:38;;;;;;;15.60;5.97;;;23.10;99.90;;;;;;5021415;28;20037;-66
2023/06/26 05:28:10;;;;;;;13.48;6.30;;;23.10;99.90;;;;;;5019362;28;20037;-66
2023/06/26 05:30:36;;;;;;;16.63;6.00;;;23.10;99.90;;;;;;5021921;28;20042;-66
2023/06/26 05:33:03;;;;;;;11.02;5.32;;;23.10;99.90;;;;;;5018362;28;20043;-66
2023/06/26 05:35:30;;;;;;;12.25;5.35;;;23.20;99.90;;;;;;5020438;28;20018;-66
2023/06/26 05:37:57;;;;;;;14.68;4.72;;;23.20;99.90;;;;;;5023286;28;20030;-66
2023/06/26 05:40:23;;;;;;;14.07;4.78;;;22.90;99.90;;;;;;5022817;28;20025;-66
2023/06/26 05:42:49;;;;;;;11.90;5.05;;;22.90;99.90;;;;;;5019661;28;20478;-66
2023/06/26 05:45:15;;;;;;;13.05;5.03;;;22.80;99.90;;;;;;5021032;28;20029;-66
2023/06/26 05:47:42;;;;;;;17.73;5.38;;;22.80;99.90;;;;;;5022021;28;20118;-66
2023/06/26 05:50:09;;;;;;;12.95;5.25;;;22.80;99.90;;;;;;5019832;28;20104;-66
2023/06/26 05:52:35;;;;;;;17.17;5.78;;;22.80;99.90;;;;;;5028553;28;20034;-66
2023/06/26 05:55:02;;;;;;;11.82;4.97;;;22.80;99.90;;;;;;5019309;28;20470;-67
2023/06/26 05:57:29;;;;;;;15.40;5.25;;;22.80;99.90;;;;;;5021291;28;20022;-66
2023/06/26 05:59:56;;;;;;;12.75;4.53;;;22.80;99.90;;;;;;5019860;28;20090;-66
2023/06/26 06:02:22;;;;;;;12.55;5.40;;;22.80;99.90;;;;;;5020396;28;20044;-67
2023/06/26 06:04:47;;;;;;;12.55;4.78;;;22.80;99.90;;;;;;5019095;28;20410;-66
2023/06/26 06:07:13;;;;;;;12.18;4.82;;;22.80;99.90;;;;;;5019658;28;20029;-67
2023/06/26 06:09:39;;;;;;;12.73;5.60;;;22.80;99.90;;;;;;5023073;28;20366;-66
2023/06/26 06:12:06;;;;;;;12.02;4.40;;;22.70;99.90;;;;;;5019959;28;20087;-66
2023/06/26 06:14:35;;;;;;;11.82;4.28;;;22.70;99.90;;;;;;5021000;28;20022;-66
2023/06/26 06:17:01;;;;;;;10.43;5.13;;;22.70;99.90;;;;;;5024632;28;20041;-66
2023/06/26 06:19:27;;;;;;;11.05;4.65;;;22.70;99.90;;;;;;5021238;28;20436;-66
2023/06/26 06:21:53;;;;;;;14.38;4.82;;;22.80;99.90;;;;;;5021867;28;20017;-66
2023/06/26 06:24:19;;;;;;;16.40;4.78;;;22.90;99.90;;;;;;5026468;28;20026;-67
2023/06/26 06:26:45;;;;;;;14.20;5.00;;;23.00;99.90;;;;;;5024067;28;20030;-67
2023/06/26 06:29:11;;;;;;;10.32;4.50;;;23.00;99.90;;;;;;5022728;28;20028;-67
2023/06/26 06:31:36;;;;;;;12.60;4.53;;;23.00;99.90;;;;;;5017993;28;20034;-67
2023/06/26 06:34:02;;;;;;;14.60;4.65;;;22.90;99.90;;;;;;5019558;28;20444;-67
2023/06/26 06:36:28;;;;;;;14.60;4.85;;;22.80;99.90;;;;;;5020811;28;20065;-67
2023/06/26 06:38:53;;;;;;;13.00;4.43;;;22.70;99.90;;;;;;5021092;28;20044;-66
2023/06/26 06:41:20;;;;;;;9.38;4.40;;;22.80;99.90;;;;;;5017495;28;20576;-67
2023/06/26 06:43:46;;;;;;;16.38;4.97;;;22.70;99.90;;;;;;5024040;28;20092;-67
2023/06/26 06:46:11;;;;;;;17.70;4.90;;;22.80;99.90;;;;;;5020140;28;20450;-67
2023/06/26 06:48:37;;;;;;;9.30;3.65;;;22.90;99.90;;;;;;5019598;28;20033;-67
2023/06/26 06:51:03;;;;;;;13.35;4.15;;;22.90;99.90;;;;;;5015231;28;20087;-67
2023/06/26 06:53:29;;;;;;;11.48;3.65;;;23.10;99.90;;;;;;5019853;28;20573;-67
2023/06/26 06:55:55;;;;;;;15.02;4.75;;;23.00;99.90;;;;;;5023318;28;20021;-67
2023/06/26 06:58:20;;;;;;;13.55;3.60;;;23.10;99.90;;;;;;5020658;28;20049;-67
2023/06/26 07:00:46;;;;;;;10.80;3.53;;;23.20;99.90;;;;;;5022131;28;20021;-66
2023/06/26 07:03:12;;;;;;;10.00;3.58;;;23.30;99.90;;;;;;5013788;28;20591;-67
2023/06/26 07:05:38;;;;;;;10.23;3.05;;;23.40;99.90;;;;;;5017074;28;20375;-67
2023/06/26 07:08:04;;;;;;;12.05;3.50;;;23.40;99.90;;;;;;5025768;28;20167;-67
2023/06/26 07:10:31;;;;;;;10.13;3.03;;;23.50;99.90;;;;;;5026680;28;20134;-67
2023/06/26 07:12:56;;;;;;;9.32;2.95;;;23.50;99.90;;;;;;5022875;28;20036;-67
2023/06/26 07:15:22;;;;;;;9.95;3.38;;;23.60;99.90;;;;;;5021644;28;20069;-67
2023/06/26 07:17:47;;;;;;;6.25;2.70;;;23.70;99.90;;;;;;5019800;28;20025;-68
2023/06/26 07:20:15;;;;;;;8.50;3.10;;;23.80;99.90;;;;;;5015326;28;20034;-66
2023/06/26 07:22:42;;;;;;;9.65;3.33;;;23.80;99.90;;;;;;5021271;28;20022;-67
2023/06/26 07:25:11;;;;;;;11.05;3.25;;;23.90;99.90;;;;;;5020264;28;20112;-67
2023/06/26 07:27:41;;;;;;;14.38;3.50;;;24.00;99.90;;;;;;5017442;28;20139;-67
2023/06/26 07:30:10;;;;;;;9.93;3.47;;;24.00;99.90;;;;;;5015727;28;20034;-67
2023/06/26 07:32:36;;;;;;;9.05;3.08;;;24.00;99.90;;;;;;5018372;28;20101;-67
2023/06/26 07:35:03;;;;;;;4.75;2.53;;;24.00;99.90;;;;;;5019406;28;20029;-67
2023/06/26 07:37:28;;;;;;;8.38;3.13;;;24.10;99.90;;;;;;5021650;28;20520;-67
2023/06/26 07:39:54;;;;;;;12.98;2.47;;;24.30;99.90;;;;;;5021092;28;20132;-68
2023/06/26 07:42:20;;;;;;;6.82;2.45;;;24.20;99.90;;;;;;5022907;28;20369;-68
2023/06/26 07:44:45;;;;;;;8.02;2.97;;;24.20;99.90;;;;;;5017150;28;20113;-68
2023/06/26 07:47:11;;;;;;;4.15;2.38;;;24.30;99.90;;;;;;5019347;28;20355;-67
2023/06/26 07:49:38;;;;;;;12.77;2.80;;;24.20;99.90;;;;;;5020735;28;20057;-68
2023/06/26 07:52:04;;;;;;;22.45;2.78;;;24.20;99.90;;;;;;5017637;28;20109;-68
2023/06/26 07:54:30;;;;;;;7.22;2.33;;;24.20;99.90;;;;;;5019597;28;20064;-68
2023/06/26 07:57:01;;;;;;;6.13;1.92;;;24.40;99.90;;;;;;5012437;28;20115;-67
2023/06/26 07:59:28;;;;;;;4.25;2.28;;;24.40;99.90;;;;;;5022323;28;20071;-68
2023/06/26 08:01:55;;;;;;;5.15;2.63;;;24.50;99.90;;;;;;5016963;28;20029;-67
2023/06/26 08:04:23;;;;;;;9.27;2.33;;;24.60;99.90;;;;;;5022146;28;20025;-67
2023/06/26 08:06:51;;;;;;;4.88;2.20;;;24.70;99.90;;;;;;5018423;28;20037;-68
2023/06/26 08:09:17;;;;;;;8.63;2.00;;;24.80;99.90;;;;;;5020859;28;20477;-67
2023/06/26 08:11:43;;;;;;;8.70;2.72;;;24.80;99.90;;;;;;5027094;28;20057;-67
2023/06/26 08:14:09;;;;;;;5.57;2.30;;;24.80;99.90;;;;;;5023777;28;20457;-67
2023/06/26 08:16:35;;;;;;;4.95;2.22;;;24.70;99.90;;;;;;5015322;28;20473;-67
2023/06/26 08:19:01;;;;;;;6.07;1.95;;;24.70;99.90;;;;;;5016590;28;20100;-67
2023/06/26 08:21:26;;;;;;;6.95;1.92;;;24.80;99.90;;;;;;5016029;28;20057;-68
2023/06/26 08:23:52;;;;;;;4.88;1.65;;;24.60;99.90;;;;;;5021814;28;20056;-67
2023/06/26 08:26:18;;;;;;;8.27;1.75;;;24.80;99.90;;;;;;5016598;28;20474;-68
2023/06/26 08:28:43;;;;;;;4.97;1.73;;;24.80;99.90;;;;;;5020578;28;20064;-67
2023/06/26 08:31:09;;;;;;;9.20;1.92;;;24.90;99.90;;;;;;5024847;28;20535;-68
2023/06/26 08:33:34;;;;;;;5.55;2.03;;;24.90;99.90;;;;;;5025363;28;20079;-67
2023/06/26 08:36:00;;;;;;;1.95;1.60;;;24.90;99.90;;;;;;5017554;28;20073;-68
2023/06/26 08:38:26;;;;;;;3.28;1.60;;;24.90;99.90;;;;;;5019200;28;20033;-67
2023/06/26 08:40:51;;;;;;;5.07;1.42;;;24.90;99.90;;;;;;5023188;28;20026;-67
2023/06/26 08:43:17;;;;;;;6.93;1.40;;;25.00;99.90;;;;;;5017088;28;20535;-67
2023/06/26 08:45:43;;;;;;;6.43;1.85;;;25.20;99.90;;;;;;5015073;28;20052;-67
2023/06/26 08:48:09;;;;;;;3.80;1.52;;;25.40;99.90;;;;;;5014227;28;20033;-67
2023/06/26 08:50:37;;;;;;;4.97;1.67;;;25.30;99.90;;;;;;5021866;28;20106;-68
2023/06/26 08:53:06;;;;;;;7.22;1.60;;;25.40;99.90;;;;;;5020546;28;20021;-67
2023/06/26 08:55:37;;;;;;;7.88;1.65;;;25.60;99.90;;;;;;5023878;28;20025;-67
2023/06/26 08:58:03;;;;;;;7.88;1.90;;;25.50;99.90;;;;;;5025883;28;20041;-67
2023/06/26 09:00:30;;;;;;;5.88;1.73;;;25.70;99.90;;;;;;5024657;28;20025;-67
2023/06/26 09:02:56;;;;;;;4.68;1.80;;;25.80;99.90;;;;;;5023052;28;20017;-67
2023/06/26 09:05:21;;;;;;;3.10;2.00;;;25.90;99.90;;;;;;5019669;28;20021;-68
2023/06/26 09:07:47;;;;;;;4.22;1.45;;;26.10;99.90;;;;;;5020190;28;20097;-66
2023/06/26 09:10:13;;;;;;;6.05;1.67;;;26.20;99.90;;;;;;5016730;28;20022;-66
2023/06/26 09:12:39;;;;;;;7.72;2.28;;;26.40;99.90;;;;;;5017115;28;20447;-67
2023/06/26 09:15:06;;;;;;;4.93;1.70;;;26.40;99.90;;;;;;5020092;28;20021;-66
2023/06/26 09:17:39;;;;;;;6.80;1.70;;;26.20;99.90;;;;;;5024733;28;20033;-66
2023/06/26 09:20:07;;;;;;;5.03;2.10;;;26.10;99.90;;;;;;5019247;28;20389;-67
2023/06/26 09:22:38;;;;;;;5.75;1.83;;;26.00;99.90;;;;;;5021523;28;20026;-66
2023/06/26 09:25:05;;;;;;;8.32;1.80;;;26.00;99.90;;;;;;5021588;28;20029;-66
2023/06/26 09:27:31;;;;;;;8.43;1.92;;;25.70;99.90;;;;;;5020395;28;20021;-67
2023/06/26 09:29:58;;;;;;;4.90;2.05;;;25.70;99.90;;;;;;5026742;28;20120;-66
2023/06/26 09:32:30;;;;;;;8.65;2.13;;;26.10;99.90;;;;;;5021896;28;20415;-66
2023/06/26 09:34:55;;;;;;;6.18;1.80;;;26.30;99.90;;;;;;5023513;28;20014;-67
2023/06/26 09:37:22;;;;;;;8.10;1.70;;;26.60;99.90;;;;;;5018704;28;20037;-67
2023/06/26 09:39:49;;;;;;;4.20;1.70;;;26.80;99.90;;;;;;5021051;28;20022;-66
2023/06/26 09:42:15;;;;;;;6.22;1.80;;;26.90;99.90;;;;;;5018867;28;20144;-67
2023/06/26 09:44:47;;;;;;;2.95;1.67;;;27.00;99.90;;;;;;5022732;28;20022;-67
2023/06/26 09:47:17;;;;;;;7.82;1.58;;;26.60;99.90;;;;;;5112254;27;20113;-66
2023/06/26 09:49:43;;;;;;;2.17;1.10;;;26.40;99.90;;;;;;5026651;27;20385;-66
2023/06/26 09:52:09;;;;;;;4.18;1.20;;;26.50;99.90;;;;;;5025906;28;20122;-67
2023/06/26 09:54:36;;;;;;;3.97;1.63;;;26.60;99.90;;;;;;5019551;28;20194;-66
2023/06/26 09:57:09;;;;;;;3.15;1.23;;;26.90;99.90;;;;;;5018889;28;20032;-67
2023/06/26 09:59:35;;;;;;;5.95;1.63;;;27.10;99.90;;;;;;5020938;28;20049;-69
2023/06/26 10:02:01;;;;;;;5.40;1.52;;;27.30;99.90;;;;;;5021504;28;20029;-67
2023/06/26 10:04:27;;;;;;;6.03;1.52;;;27.10;99.90;;;;;;5023470;28;20033;-68
2023/06/26 10:06:56;;;;;;;2.47;1.40;;;26.70;99.90;;;;;;5020175;28;20435;-67
2023/06/26 10:09:23;;;;;;;3.50;1.23;;;26.60;99.90;;;;;;5020421;28;20021;-67
2023/06/26 10:12:18;;;;;;;2.83;1.13;;;26.80;99.90;;;;;;5017461;28;20038;-67
2023/06/26 10:14:43;;;;;;;5.80;1.48;;;27.00;99.90;;;;;;5027309;28;20029;-68
2023/06/26 10:17:16;;;;;;;4.88;1.30;;;27.20;99.00;;;;;;5025797;28;20371;-68
2023/06/26 10:19:45;;;;;;;2.67;1.05;;;27.50;99.90;;;;;;5019783;28;20509;-67
2023/06/26 10:22:15;;;;;;;5.25;1.50;;;27.60;99.20;;;;;;5020829;28;20026;-67
2023/06/26 10:24:41;;;;;;;5.50;0.85;;;27.70;97.20;;;;;;5023999;28;20033;-68
2023/06/26 10:27:16;;;;;;;3.17;0.90;;;27.70;97.50;;;;;;5026146;28;20018;-67
2023/06/26 10:29:46;;;;;;;2.55;0.85;;;27.80;96.40;;;;;;5023913;28;20017;-67
2023/06/26 10:32:13;;;;;;;7.57;1.63;;;28.00;95.80;;;;;;5017656;28;20033;-67
2023/06/26 10:34:39;;;;;;;3.53;1.20;;;27.80;96.30;;;;;;5020288;28;20350;-67
2023/06/26 10:37:04;;;;;;;3.75;1.27;;;27.70;96.60;;;;;;5018534;28;20040;-65
2023/06/26 10:39:45;;;;;;;3.67;0.80;;;27.60;92.90;;;;;;5020715;28;20020;-66
2023/06/26 10:42:11;;;;;;;3.20;1.30;;;27.50;93.60;;;;;;5013009;28;20058;-65
2023/06/26 10:44:44;;;;;;;3.58;1.05;;;27.70;94.00;;;;;;5021838;28;20139;-66
2023/06/26 10:47:12;;;;;;;4.75;1.10;;;27.70;93.30;;;;;;5015629;28;20112;-66
2023/06/26 10:49:42;;;;;;;3.40;1.17;;;27.90;94.40;;;;;;5021432;28;20026;-66
2023/06/26 10:52:08;;;;;;;4.43;1.25;;;28.10;93.70;;;;;;5023371;28;20037;-66
2023/06/26 10:54:34;;;;;;;3.42;1.30;;;28.10;94.00;;;;;;5018441;28;20123;-67
2023/06/26 10:57:01;;;;;;;1.95;1.13;;;28.20;95.70;;;;;;5021596;28;20049;-67
2023/06/26 10:59:32;;;;;;;2.45;0.95;;;28.30;92.10;;;;;;5017169;28;20394;-67
2023/06/26 11:02:05;;;;;;;4.25;1.10;;;28.50;91.70;;;;;;5012082;28;20033;-67
2023/06/26 11:04:51;;;;;;;2.38;1.10;;;28.60;92.60;;;;;;5023870;28;20028;-66
2023/06/26 11:07:25;;;;;;;1.90;1.00;;;28.40;88.90;;;;;;5022179;28;20042;-66
2023/06/26 11:10:09;;;;;;;1.77;0.88;;;28.60;92.30;;;;;;5018380;28;20092;-66
2023/06/26 11:12:41;;;;;;;4.18;1.30;;;28.40;86.80;;;;;;5018957;28;20055;-66
2023/06/26 11:15:18;;;;;;;3.00;1.27;;;28.70;90.80;;;;;;5017006;28;20022;-66
2023/06/26 11:17:46;;;;;;;5.40;1.50;;;28.80;89.10;;;;;;5024050;28;20033;-66
2023/06/26 11:20:15;;;;;;;2.25;1.63;;;28.70;90.60;;;;;;5023926;28;20018;-66
2023/06/26 11:22:42;;;;;;;4.53;1.40;;;28.80;90.00;;;;;;5021955;28;20116;-66
2023/06/26 11:25:09;;;;;;;4.85;1.38;;;28.90;92.10;;;;;;5019861;28;20037;-66
2023/06/26 11:27:38;;;;;;;8.48;1.30;;;28.80;91.70;;;;;;5019034;28;20393;-66
2023/06/26 11:30:05;;;;;;;5.45;1.50;;;28.80;90.70;;;;;;5025809;28;20033;-66
2023/06/26 11:32:32;;;;;;;8.68;1.00;;;28.80;91.40;;;;;;5018463;28;20025;-66
2023/06/26 11:34:59;;;;;;;4.50;1.17;;;28.60;86.70;;;;;;5014190;28;20113;-67
2023/06/26 11:37:25;;;;;;;3.33;1.35;;;28.50;88.00;;;;;;5016886;28;20490;-66
2023/06/26 11:39:51;;;;;;;4.20;1.23;;;28.50;89.00;;;;;;5020786;28;20098;-66
2023/06/26 11:42:20;;;;;;;1.70;1.15;;;28.30;85.20;;;;;;5014564;28;20474;-66
2023/06/26 11:44:47;;;;;;;2.22;1.00;;;28.10;87.30;;;;;;5022761;28;20025;-66
2023/06/26 11:47:22;;;;;;;6.10;1.13;;;28.10;87.20;;;;;;5019454;28;20017;-66
2023/06/26 11:49:49;;;;;;;3.95;1.23;;;28.30;88.10;;;;;;5021928;28;20045;-66
2023/06/26 11:52:16;;;;;;;2.75;1.25;;;28.40;87.10;;;;;;5016649;28;20030;-66
2023/06/26 11:54:42;;;;;;;3.72;1.27;;;28.50;86.30;;;;;;5015857;28;20057;-66
2023/06/26 11:57:13;;;;;;;7.10;1.30;;;28.60;88.80;;;;;;5013886;28;20025;-68
2023/06/26 11:59:40;;;;;;;3.15;1.40;;;28.40;85.30;;;;;;5017350;28;20053;-68
2023/06/26 12:02:10;;;;;;;6.60;1.00;;;28.10;87.90;;;;;;5022929;28;20047;-67
2023/06/26 12:04:42;;;;;;;1.63;1.00;;;28.00;85.00;;;;;;5025655;28;20025;-66
2023/06/26 12:07:09;;;;;;;4.57;1.20;;;28.20;86.90;;;;;;5020381;28;20073;-66
2023/06/26 12:09:47;;;;;;;3.33;0.90;;;28.30;84.10;;;;;;5013792;28;20021;-67
2023/06/26 12:12:16;;;;;;;4.53;1.23;;;28.30;84.20;;;;;;5018291;28;20048;-67
2023/06/26 12:14:43;;;;;;;2.20;1.30;;;28.20;80.10;;;;;;5020493;28;20049;-66
2023/06/26 12:17:14;;;;;;;3.25;1.25;;;28.40;83.40;;;;;;5024454;28;20030;-66
2023/06/26 12:19:44;;;;;;;4.13;1.05;;;28.60;83.70;;;;;;5023025;28;20488;-66
2023/06/26 12:22:10;;;;;;;5.05;0.90;;;28.70;82.90;;;;;;5015815;28;20025;-67
2023/06/26 12:24:39;;;;;;;4.35;1.30;;;28.90;84.00;;;;;;5019504;28;20049;-66
2023/06/26 12:27:10;;;;;;;4.03;1.00;;;28.70;82.00;;;;;;5018758;28;20025;-67
2023/06/26 12:29:37;;;;;;;6.40;1.25;;;28.90;84.30;;;;;;5019629;28;20029;-66
2023/06/26 12:32:03;;;;;;;2.88;1.02;;;29.00;86.00;;;;;;5018456;28;20075;-66
2023/06/26 12:34:32;;;;;;;1.60;1.33;;;29.00;85.30;;;;;;5014805;28;20116;-66
2023/06/26 12:37:16;;;;;;;2.53;1.40;;;28.90;84.80;;;;;;5018097;28;20101;-66
2023/06/26 12:39:55;;;;;;;4.90;1.20;;;28.70;87.60;;;;;;5019882;28;20057;-66
2023/06/26 12:42:25;;;;;;;4.30;1.40;;;28.70;89.50;;;;;;5020809;28;20026;-66